Time;durP1;ratioP1;P1;durP2;ratioP2;P2;SDS_P1;SDS_P2;PMS_P1;PMS_P2;Temp;Humidity;BMP_temperature;BMP_pressure;BME280_temperature;BME280_humidity;BME280_pressure;Samples;Min_cycle;Max_cycle;Signal;HPM_P1;HPM_P2
2024/01/02 00:00:38;;;;;;;9.05;2.58;;;;;;;6.67;100.00;99967.56;5014213;28;20093;-81
2024/01/02 00:03:03;;;;;;;16.50;3.20;;;;;;;6.70;100.00;99964.09;5013974;28;20025;-81
2024/01/02 00:05:29;;;;;;;10.18;2.60;;;;;;;6.70;100.00;99946.59;5014121;28;20033;-81
2024/01/02 00:07:54;;;;;;;10.63;3.17;;;;;;;6.63;100.00;99929.00;5012899;28;20390;-81
2024/01/02 00:10:20;;;;;;;13.35;3.13;;;;;;;6.74;100.00;99942.28;5013731;28;20030;-81
2024/01/02 00:12:45;;;;;;;12.13;3.10;;;;;;;6.77;100.00;99939.69;5014014;28;20034;-81
2024/01/02 00:15:11;;;;;;;13.75;2.60;;;;;;;6.79;100.00;99924.84;5013956;28;20054;-81
2024/01/02 00:17:36;;;;;;;13.13;2.63;;;;;;;6.76;100.00;99915.16;5013915;28;20140;-81
2024/01/02 00:20:02;;;;;;;12.13;2.90;;;;;;;6.80;100.00;99915.22;5028851;28;20066;-81
2024/01/02 00:22:28;;;;;;;15.60;2.95;;;;;;;6.83;100.00;99900.38;5013325;28;20064;-80
2024/01/02 00:24:53;;;;;;;9.93;2.55;;;;;;;6.74;100.00;99879.28;5013842;28;20034;-80
2024/01/02 00:27:18;;;;;;;7.70;2.10;;;;;;;6.89;100.00;99875.91;5013907;28;20061;-80
2024/01/02 00:29:44;;;;;;;15.63;3.10;;;;;;;6.88;100.00;99882.91;5013771;28;20034;-80
2024/01/02 00:32:09;;;;;;;11.73;2.78;;;;;;;6.85;100.00;99871.50;5013596;28;20040;-80
2024/01/02 00:34:35;;;;;;;6.88;2.30;;;;;;;6.87;100.00;99849.66;5012825;28;20501;-80
2024/01/02 00:37:00;;;;;;;9.15;2.25;;;;;;;6.93;100.00;99835.69;5012481;28;20033;-80
2024/01/02 00:39:25;;;;;;;7.60;2.20;;;;;;;6.93;100.00;99818.19;5013709;28;20030;-80
2024/01/02 00:41:51;;;;;;;8.82;2.30;;;;;;;6.95;100.00;99811.22;5013736;28;20080;-80
2024/01/02 00:44:16;;;;;;;8.05;2.10;;;;;;;6.99;100.00;99799.00;5013653;28;20042;-80
2024/01/02 00:46:42;;;;;;;8.75;2.13;;;;;;;6.89;100.00;99766.50;5013632;28;20478;-80
2024/01/02 00:49:07;;;;;;;9.27;2.25;;;;;;;7.01;100.00;99778.84;5013654;28;20066;-80
2024/01/02 00:51:32;;;;;;;7.43;2.20;;;;;;;6.94;100.00;99756.94;5012192;28;20081;-80
2024/01/02 00:53:59;;;;;;;7.32;2.22;;;;;;;7.04;100.00;99742.13;5013556;28;20049;-80
2024/01/02 00:56:24;;;;;;;7.80;2.17;;;;;;;6.85;100.00;99699.09;5013487;28;20034;-80
2024/01/02 00:58:50;;;;;;;5.40;2.00;;;;;;;6.95;100.00;99698.28;5013778;28;20040;-80
2024/01/02 01:01:17;;;;;;;5.07;1.83;;;;;;;7.06;100.00;99716.72;5012259;28;20079;-80
2024/01/02 01:03:42;;;;;;;5.70;1.90;;;;;;;7.02;100.00;99691.31;5013026;28;20034;-80
2024/01/02 01:06:08;;;;;;;7.18;1.92;;;;;;;7.00;100.00;99678.19;5013489;28;20034;-80
2024/01/02 01:08:33;;;;;;;8.35;2.08;;;;;;;7.10;100.00;99697.50;5012214;28;20542;-80
2024/01/02 01:10:59;;;;;;;3.83;1.70;;;;;;;7.10;100.00;99689.59;4995722;28;20034;-80
2024/01/02 01:13:25;;;;;;;4.60;1.67;;;;;;;7.14;100.00;99683.50;5013355;28;20042;-80
2024/01/02 01:15:50;;;;;;;5.78;1.88;;;;;;;7.11;100.00;99666.84;5013613;28;20061;-80
2024/01/02 01:18:16;;;;;;;4.68;1.60;;;;;;;7.12;100.00;99648.47;5013085;28;20076;-80
2024/01/02 01:20:41;;;;;;;6.30;1.70;;;;;;;7.02;100.00;99631.81;5013081;28;20029;-80
2024/01/02 01:23:06;;;;;;;7.35;1.80;;;;;;;6.94;100.00;99615.13;5013389;28;20108;-80
2024/01/02 01:25:32;;;;;;;6.13;1.70;;;;;;;6.99;100.00;99623.91;5013010;28;20467;-80
2024/01/02 01:27:58;;;;;;;3.75;1.70;;;;;;;7.12;100.00;99632.72;5013282;28;20038;-80
2024/01/02 01:30:24;;;;;;;5.00;1.80;;;;;;;7.05;100.00;99595.91;5013127;28;20034;-80
2024/01/02 01:32:49;;;;;;;4.45;1.60;;;;;;;7.16;100.00;99618.72;5028873;28;20107;-80
2024/01/02 01:35:14;;;;;;;2.13;1.40;;;;;;;7.09;100.00;99595.06;5016783;28;20108;-80
2024/01/02 01:37:40;;;;;;;3.58;1.63;;;;;;;7.11;100.00;99588.03;5015780;28;20038;-80
2024/01/02 01:40:06;;;;;;;4.88;1.55;;;;;;;7.19;100.00;99566.19;5016591;28;20042;-81
2024/01/02 01:42:31;;;;;;;5.07;1.83;;;;;;;7.19;100.00;99581.06;5016813;28;20030;-80
2024/01/02 01:44:57;;;;;;;2.63;1.25;;;;;;;7.16;100.00;99553.06;5016769;28;20041;-81
2024/01/02 01:47:22;;;;;;;5.00;1.35;;;;;;;7.25;100.00;99555.72;5016721;28;20034;-81
2024/01/02 01:49:48;;;;;;;2.30;1.17;;;;;;;7.23;100.00;99549.56;5015576;28;20040;-81
2024/01/02 01:52:14;;;;;;;2.83;1.27;;;;;;;7.18;100.00;99551.31;5016630;28;20030;-81
2024/01/02 01:54:40;;;;;;;2.05;1.40;;;;;;;7.25;100.00;99515.44;5016635;28;20110;-81
2024/01/02 01:57:05;;;;;;;2.97;1.20;;;;;;;7.30;100.00;99518.06;5016296;28;20034;-81
2024/01/02 01:59:32;;;;;;;4.10;1.55;;;;;;;7.27;100.00;99503.16;4999081;28;20539;-81
2024/01/02 02:01:57;;;;;;;1.38;1.15;;;;;;;7.32;100.00;99503.16;5016463;28;20037;-81
2024/01/02 02:04:25;;;;;;;2.53;1.30;;;;;;;7.32;100.00;99513.69;5014691;28;20490;-82
2024/01/02 02:06:51;;;;;;;5.10;1.40;;;;;;;7.14;100.00;99452.34;5016377;28;20038;-81
2024/01/02 02:09:17;;;;;;;2.97;1.42;;;;;;;7.28;100.00;99478.66;5014815;28;20038;-81
2024/01/02 02:11:44;;;;;;;1.85;1.10;;;;;;;7.24;100.00;99472.53;5014989;28;20034;-82
2024/01/02 02:14:10;;;;;;;2.08;1.30;;;;;;;7.24;100.00;99466.41;5016187;28;20042;-82
2024/01/02 02:16:36;;;;;;;1.90;1.05;;;;;;;7.26;100.00;99473.38;5014915;28;20045;-82
2024/01/02 02:19:01;;;;;;;1.73;1.17;;;;;;;7.28;100.00;99462.91;5014964;28;20033;-82
2024/01/02 02:21:26;;;;;;;3.67;1.30;;;;;;;7.17;100.00;99420.84;5015961;28;20052;-82
2024/01/02 02:23:52;;;;;;;3.40;1.30;;;;;;;7.22;100.00;99431.34;5014921;28;20037;-82
2024/01/02 02:26:17;;;;;;;3.08;1.05;;;;;;;7.23;100.00;99418.19;5015694;28;20065;-82
2024/01/02 02:28:42;;;;;;;1.85;0.90;;;;;;;7.20;100.00;99399.84;5015997;28;20034;-82
2024/01/02 02:31:08;;;;;;;1.35;0.90;;;;;;;7.27;100.00;99390.19;5015851;28;20060;-82
2024/01/02 02:33:33;;;;;;;1.92;1.00;;;;;;;7.24;100.00;99387.59;5014656;28;20026;-82
2024/01/02 02:36:01;;;;;;;2.88;1.15;;;;;;;7.31;100.00;99401.56;5014646;28;20364;-82
2024/01/02 02:38:27;;;;;;;1.33;0.85;;;;;;;7.27;100.00;99379.69;5016063;28;20519;-82
2024/01/02 02:40:52;;;;;;;0.80;0.80;;;;;;;7.33;100.00;99363.94;5014793;28;20045;-82
2024/01/02 02:43:17;;;;;;;2.65;1.10;;;;;;;7.34;100.00;99349.03;5015474;28;20466;-82
2024/01/02 02:45:43;;;;;;;1.25;0.93;;;;;;;7.30;100.00;99350.78;5014702;28;20036;-82
2024/01/02 02:48:08;;;;;;;0.80;0.80;;;;;;;7.41;100.00;99345.50;5015603;28;20034;-82
2024/01/02 02:50:34;;;;;;;1.42;0.90;;;;;;;7.34;100.00;99312.25;5014298;28;20030;-82
2024/01/02 02:52:59;;;;;;;2.05;1.00;;;;;;;7.39;100.00;99331.50;5014235;28;20372;-82
2024/01/02 02:55:24;;;;;;;3.25;1.00;;;;;;;7.40;100.00;99341.13;5014845;28;20076;-82
2024/01/02 02:57:50;;;;;;;1.55;1.15;;;;;;;7.41;100.00;99325.41;5015243;28;20057;-82
2024/01/02 03:00:15;;;;;;;2.00;1.10;;;;;;;7.41;100.00;99306.09;5013765;28;20046;-82
2024/01/02 03:02:41;;;;;;;2.65;1.20;;;;;;;7.41;100.00;99285.97;5014916;28;20033;-82
2024/01/02 03:05:08;;;;;;;1.58;0.98;;;;;;;7.38;100.00;99285.97;5013727;28;20045;-82
2024/01/02 03:07:33;;;;;;;2.10;1.10;;;;;;;7.40;100.00;99275.44;5013910;28;20032;-82
2024/01/02 03:09:58;;;;;;;1.63;1.00;;;;;;;7.38;100.00;99280.72;5013717;28;20034;-82
2024/01/02 03:12:24;;;;;;;0.80;0.80;;;;;;;7.39;100.00;99237.78;5014727;28;20033;-83
2024/01/02 03:14:49;;;;;;;0.80;0.65;;;;;;;7.41;100.00;99232.50;5013714;28;20509;-83
2024/01/02 03:17:14;;;;;;;0.70;0.70;;;;;;;7.36;100.00;99227.28;5014637;28;20083;-83
2024/01/02 03:19:40;;;;;;;1.25;0.90;;;;;;;7.44;100.00;99233.38;5013426;28;20486;-83
2024/01/02 03:22:05;;;;;;;1.35;1.08;;;;;;;7.39;100.00;99206.25;5014918;28;20176;-83
2024/01/02 03:24:31;;;;;;;1.10;0.98;;;;;;;7.46;100.00;99213.25;5013584;28;20088;-83
2024/01/02 03:26:56;;;;;;;2.10;1.20;;;;;;;7.48;100.00;99198.34;5014715;28;20271;-83
2024/01/02 03:29:22;;;;;;;0.85;0.85;;;;;;;7.38;100.00;99172.13;5014683;28;20070;-83
2024/01/02 03:31:47;;;;;;;0.88;0.80;;;;;;;7.44;100.00;99179.97;5014311;28;20041;-83
2024/01/02 03:34:13;;;;;;;1.80;0.70;;;;;;;7.38;100.00;99172.13;5013228;28;20540;-83
2024/01/02 03:36:38;;;;;;;1.85;0.95;;;;;;;7.53;100.00;99166.78;5014566;28;20034;-83
2024/01/02 03:39:04;;;;;;;1.60;1.00;;;;;;;7.52;100.00;99162.41;5013365;28;20431;-83
2024/01/02 03:41:29;;;;;;;2.05;1.00;;;;;;;7.49;100.00;99168.56;4996861;28;20425;-83
2024/01/02 03:43:54;;;;;;;1.08;0.80;;;;;;;7.43;100.00;99139.66;5014146;28;20045;-83
2024/01/02 03:46:20;;;;;;;1.27;1.17;;;;;;;7.61;100.00;99175.50;5012949;28;20038;-83
2024/01/02 03:48:45;;;;;;;0.95;0.90;;;;;;;7.43;100.00;99120.41;5012871;28;20069;-83
2024/01/02 03:51:11;;;;;;;1.08;0.80;;;;;;;7.65;100.00;99157.97;5014205;28;20123;-83
2024/01/02 03:53:37;;;;;;;0.77;0.77;;;;;;;7.65;100.00;99148.34;5014253;28;20064;-84
2024/01/02 03:56:03;;;;;;;0.80;0.80;;;;;;;7.63;100.00;99151.88;5013567;28;20041;-83
2024/01/02 03:58:30;;;;;;;1.23;1.00;;;;;;;7.68;100.00;99144.81;5014344;28;20044;-84
2024/01/02 04:00:55;;;;;;;0.88;0.88;;;;;;;7.68;100.00;99135.19;5013136;28;20044;-84
2024/01/02 04:03:21;;;;;;;0.68;0.68;;;;;;;7.72;100.00;99126.41;5014109;28;20100;-84
2024/01/02 04:05:46;;;;;;;0.82;0.80;;;;;;;7.70;100.00;99112.38;5029568;28;20041;-83
2024/01/02 04:08:12;;;;;;;1.13;1.02;;;;;;;7.73;100.00;99104.47;5013019;28;20040;-83
2024/01/02 04:10:40;;;;;;;0.75;0.75;;;;;;;7.76;100.00;99100.97;5014120;28;20030;-83
2024/01/02 04:13:06;;;;;;;1.13;0.90;;;;;;;7.91;100.00;99107.88;5013817;28;20038;-84
2024/01/02 04:15:32;;;;;;;1.65;1.10;;;;;;;7.86;100.00;99084.25;5014096;28;20033;-84
2024/01/02 04:17:57;;;;;;;1.60;1.10;;;;;;;7.97;100.00;99098.19;5014065;28;20141;-84
2024/01/02 04:20:22;;;;;;;1.30;1.20;;;;;;;8.02;100.00;99112.19;5014028;28;20394;-84
2024/01/02 04:22:53;;;;;;;0.90;0.90;;;;;;;8.04;100.00;99091.13;5013750;28;20062;-84
2024/01/02 04:25:19;;;;;;;1.00;1.00;;;;;;;7.99;100.00;99078.00;5014009;28;20045;-84
2024/01/02 04:27:44;;;;;;;1.27;1.05;;;;;;;8.10;100.00;99091.09;5013948;28;20038;-84
2024/01/02 04:30:11;;;;;;;1.00;1.00;;;;;;;8.07;100.00;99075.31;5013816;28;20490;-84
2024/01/02 04:32:37;;;;;;;1.13;1.10;;;;;;;8.11;100.00;99078.81;5012745;28;20041;-84
2024/01/02 04:35:02;;;;;;;1.10;1.10;;;;;;;8.27;100.00;99118.16;5013601;28;20406;-84
2024/01/02 04:37:28;;;;;;;0.90;0.90;;;;;;;8.33;100.00;99083.00;5012513;28;20532;-83
2024/01/02 04:39:53;;;;;;;1.05;1.02;;;;;;;8.31;100.00;99057.56;5013534;28;20030;-83
2024/01/02 04:42:19;;;;;;;1.30;1.00;;;;;;;8.41;100.00;99083.84;5013495;28;20034;-84
2024/01/02 04:44:44;;;;;;;1.33;1.20;;;;;;;8.43;100.00;99073.28;5013478;28;20042;-84
2024/01/02 04:47:09;;;;;;;1.13;1.13;;;;;;;8.45;100.00;99074.16;5013702;28;20475;-84
2024/01/02 04:49:35;;;;;;;2.35;1.38;;;;;;;8.49;100.00;99079.38;5013730;28;20417;-84
2024/01/02 04:52:00;;;;;;;1.35;1.20;;;;;;;8.45;100.00;99067.13;5012298;28;20137;-84
2024/01/02 04:54:26;;;;;;;1.25;1.20;;;;;;;8.56;100.00;99077.56;5013598;28;20076;-85
2024/01/02 04:56:51;;;;;;;1.17;1.17;;;;;;;8.47;100.00;99046.94;5012302;28;20363;-85
2024/01/02 04:59:17;;;;;;;1.48;1.10;;;;;;;8.68;100.00;99080.06;4995887;28;20099;-84
2024/01/02 05:01:42;;;;;;;0.98;0.98;;;;;;;8.70;100.00;99074.81;5012194;28;20044;-84
2024/01/02 05:04:07;;;;;;;1.23;1.13;;;;;;;8.61;100.00;99069.59;5012284;28;20041;-84
2024/01/02 05:06:33;;;;;;;0.90;0.90;;;;;;;8.76;100.00;99065.06;4979626;28;20458;-85
2024/01/02 05:08:58;;;;;;;0.98;0.98;;;;;;;8.75;100.00;99060.69;5014541;28;20041;-84
2024/01/02 05:11:23;;;;;;;0.90;0.90;;;;;;;8.85;100.00;99081.66;5017094;28;20037;-84
2024/01/02 05:13:49;;;;;;;1.08;1.08;;;;;;;8.90;100.00;99093.00;5016395;28;20074;-84
2024/01/02 05:16:14;;;;;;;1.00;1.00;;;;;;;8.92;100.00;99076.31;5016180;28;20034;-84
2024/01/02 05:18:40;;;;;;;0.80;0.80;;;;;;;9.00;100.00;99060.44;5018970;28;20040;-86
2024/01/02 05:21:07;;;;;;;0.90;0.90;;;;;;;9.08;100.00;99089.28;5017809;28;20034;-85
2024/01/02 05:23:32;;;;;;;0.85;0.85;;;;;;;9.03;100.00;99068.28;5016404;28;20550;-84
2024/01/02 05:25:58;;;;;;;1.00;1.00;;;;;;;9.05;100.00;99069.16;5016206;28;20116;-84
2024/01/02 05:28:23;;;;;;;1.02;0.98;;;;;;;9.23;100.00;99083.88;5015054;28;20088;-84
2024/01/02 05:30:49;;;;;;;1.20;1.20;;;;;;;9.28;100.00;99080.25;5014738;28;20061;-84
2024/01/02 05:33:14;;;;;;;1.50;1.40;;;;;;;9.31;100.00;99073.22;5014381;28;20281;-85
2024/01/02 05:35:39;;;;;;;1.10;1.10;;;;;;;9.37;100.00;99068.72;5014343;28;20474;-85
2024/01/02 05:38:05;;;;;;;1.40;1.30;;;;;;;9.40;100.00;99076.63;4998134;28;20116;-84
2024/01/02 05:40:31;;;;;;;2.00;1.10;;;;;;;9.34;100.00;99052.97;5014579;28;20112;-84
2024/01/02 05:42:56;;;;;;;1.67;1.40;;;;;;;9.42;100.00;99066.94;5015676;28;20458;-85
2024/01/02 05:45:22;;;;;;;1.45;1.40;;;;;;;9.55;100.00;99096.66;5015521;28;20034;-84
2024/01/02 05:47:47;;;;;;;1.40;1.30;;;;;;;9.53;100.00;99065.00;5015535;28;20072;-84
2024/01/02 05:50:13;;;;;;;1.85;1.25;;;;;;;9.63;100.00;99068.38;5015097;28;20172;-84
2024/01/02 05:52:41;;;;;;;2.08;1.30;;;;;;;9.66;100.00;99078.91;5015462;28;20061;-84
2024/01/02 05:55:07;;;;;;;1.80;1.23;;;;;;;9.72;100.00;99104.31;5015152;28;20133;-84
2024/01/02 05:57:33;;;;;;;1.42;1.00;;;;;;;9.78;100.00;99099.81;5014162;28;20038;-85
2024/01/02 05:59:58;;;;;;;1.17;1.10;;;;;;;9.81;100.00;99091.00;5014164;28;20470;-84
2024/01/02 06:02:23;;;;;;;1.20;1.10;;;;;;;9.74;100.00;99081.44;5015247;28;20180;-84
2024/01/02 06:04:49;;;;;;;1.13;1.13;;;;;;;9.87;100.00;99111.16;5015085;28;20034;-84
2024/01/02 06:07:14;;;;;;;0.95;0.95;;;;;;;9.90;100.00;99111.97;5015247;28;20375;-84
2024/01/02 06:09:39;;;;;;;1.00;1.00;;;;;;;9.91;100.00;99102.28;5015293;28;20069;-84
2024/01/02 06:12:05;;;;;;;1.00;1.00;;;;;;;9.92;100.00;99106.66;5014827;28;20037;-85
2024/01/02 06:14:30;;;;;;;1.50;1.08;;;;;;;9.98;100.00;99130.34;5013641;28;20044;-84
2024/01/02 06:16:58;;;;;;;0.90;0.90;;;;;;;10.00;100.00;99123.25;5013902;28;20049;-85
2024/01/02 06:19:23;;;;;;;1.00;1.00;;;;;;;10.04;100.00;99132.88;5013608;28;20030;-84
2024/01/02 06:21:49;;;;;;;1.10;1.10;;;;;;;10.08;100.00;99123.16;4975270;28;1109471;-84
2024/01/02 06:24:14;;;;;;;1.08;1.08;;;;;;;10.10;100.00;99124.84;5015058;28;20044;-84
2024/01/02 06:26:40;;;;;;;1.00;1.00;;;;;;;10.12;100.00;99133.63;5015829;28;20036;-84
2024/01/02 06:29:05;;;;;;;3.15;1.08;;;;;;;10.11;100.00;99142.47;5014796;28;20528;-85
2024/01/02 06:31:31;;;;;;;1.92;1.30;;;;;;;10.16;100.00;99142.38;5014635;28;20037;-84
2024/01/02 06:33:56;;;;;;;1.85;1.70;;;;;;;10.09;100.00;99132.81;5015724;28;20038;-84
2024/01/02 06:36:22;;;;;;;2.00;1.80;;;;;;;10.20;100.00;99152.00;5015933;28;20034;-84
2024/01/02 06:38:47;;;;;;;3.97;2.10;;;;;;;10.24;100.00;99157.25;5014776;28;20430;-84
2024/01/02 06:41:13;;;;;;;3.78;2.40;;;;;;;10.23;100.00;99152.81;5015833;28;20041;-84
2024/01/02 06:43:39;;;;;;;3.05;2.40;;;;;;;10.27;100.00;99154.53;5014569;28;20065;-85
2024/01/02 06:46:04;;;;;;;3.38;2.70;;;;;;;10.25;100.00;99145.78;5015410;28;20065;-85
2024/01/02 06:48:29;;;;;;;4.88;2.85;;;;;;;10.31;100.00;99150.09;5015676;28;20041;-85
2024/01/02 06:50:55;;;;;;;4.32;3.30;;;;;;;10.32;100.00;99151.88;5015672;28;20053;-85
2024/01/02 06:53:20;;;;;;;5.13;3.50;;;;;;;10.39;100.00;99158.78;5015277;28;20037;-85
2024/01/02 06:55:46;;;;;;;7.85;3.92;;;;;;;10.34;100.00;99142.13;5014189;28;20128;-84
2024/01/02 06:58:11;;;;;;;7.15;4.57;;;;;;;10.40;100.00;99155.22;5015510;28;20040;-85
2024/01/02 07:00:37;;;;;;;5.93;4.03;;;;;;;10.44;100.00;99171.91;5015396;28;20034;-84
2024/01/02 07:03:04;;;;;;;7.28;4.38;;;;;;;10.47;100.00;99170.09;5015369;28;20076;-85
2024/01/02 07:05:29;;;;;;;6.40;4.45;;;;;;;10.38;100.00;99153.53;5013824;28;20044;-85
2024/01/02 07:07:56;;;;;;;7.78;4.65;;;;;;;10.41;100.00;99159.63;5015174;28;20105;-85
2024/01/02 07:10:24;;;;;;;6.10;4.63;;;;;;;10.31;100.00;99142.16;5014862;28;20038;-85
2024/01/02 07:12:50;;;;;;;7.03;5.05;;;;;;;10.43;100.00;99168.38;5013670;28;20034;-84
2024/01/02 07:15:16;;;;;;;7.78;5.10;;;;;;;10.39;100.00;99166.69;5013849;28;20049;-85
2024/01/02 07:17:42;;;;;;;8.15;5.05;;;;;;;10.56;100.00;99194.59;5015082;28;20070;-85
2024/01/02 07:20:08;;;;;;;13.60;5.28;;;;;;;10.58;100.00;99179.59;5015010;28;20058;-85
2024/01/02 07:22:33;;;;;;;8.32;5.53;;;;;;;10.53;100.00;99172.66;5014574;28;20053;-87
2024/01/02 07:24:59;;;;;;;10.32;5.53;;;;;;;10.61;100.00;99185.69;5014580;28;20030;-85
2024/01/02 07:27:24;;;;;;;10.05;5.28;;;;;;;10.66;100.00;99185.63;5014949;28;20029;-87
2024/01/02 07:29:49;;;;;;;10.88;5.65;;;;;;;10.67;100.00;99197.97;5014739;28;20037;-88
2024/01/02 07:32:15;;;;;;;10.10;5.57;;;;;;;10.68;100.00;99207.63;5012696;28;20478;-90
2024/01/02 07:34:40;;;;;;;9.43;5.70;;;;;;;10.72;100.00;99218.13;5014329;28;20062;-87
2024/01/02 07:37:08;;;;;;;11.05;5.88;;;;;;;10.76;100.00;99208.38;5014413;28;20045;-90
2024/01/02 07:39:43;;;;;;;10.25;5.50;;;;;;;10.59;100.00;99179.59;5013334;28;20041;-89
2024/01/02 07:42:09;;;;;;;10.02;5.25;;;;;;;10.64;100.00;99192.72;5013468;28;20041;-89
2024/01/02 07:44:36;;;;;;;11.95;5.55;;;;;;;10.71;100.00;99216.38;5013125;28;20034;-90
2024/01/02 07:47:02;;;;;;;9.40;5.47;;;;;;;10.80;100.00;99230.34;5014565;28;20034;-89
2024/01/02 07:49:28;;;;;;;9.25;5.28;;;;;;;10.81;100.00;99221.50;5014496;28;20132;-90
2024/01/02 07:51:54;;;;;;;11.38;5.38;;;;;;;10.81;100.00;99221.50;5013135;28;20029;-89
2024/01/02 07:54:19;;;;;;;7.65;5.18;;;;;;;10.78;100.00;99223.28;4997100;28;20393;-89
2024/01/02 07:56:45;;;;;;;12.60;4.97;;;;;;;10.83;100.00;99233.78;5013171;28;20462;-91
2024/01/02 07:59:15;;;;;;;9.50;4.72;;;;;;;10.77;100.00;99228.59;5013213;28;20045;-89
2024/01/02 08:01:40;;;;;;;11.50;5.00;;;;;;;10.71;100.00;99216.38;5014276;28;20042;-90
2024/01/02 08:04:06;;;;;;;11.23;4.88;;;;;;;10.83;100.00;99230.28;5014368;28;20036;-87
2024/01/02 08:06:31;;;;;;;9.77;4.95;;;;;;;10.79;100.00;99224.16;5013884;28;20037;-90
2024/01/02 08:08:57;;;;;;;8.70;4.95;;;;;;;10.88;100.00;99247.81;5012873;28;20121;-88
2024/01/02 08:11:25;;;;;;;8.02;4.47;;;;;;;10.67;100.00;99206.75;5013000;28;20104;-90
2024/01/02 08:13:50;;;;;;;11.23;4.45;;;;;;;10.87;100.00;99242.53;5012939;28;20029;-88
2024/01/02 08:16:18;;;;;;;9.40;4.60;;;;;;;10.86;100.00;99238.16;5013816;28;20430;-87
2024/01/02 08:18:43;;;;;;;11.20;5.47;;;;;;;10.88;100.00;99233.72;4996103;28;20038;-90
2024/01/02 08:21:09;;;;;;;9.52;3.75;;;;;;;10.86;100.00;99236.38;5012276;28;20485;-89
2024/01/02 08:23:36;;;;;;;13.23;4.55;;;;;;;10.83;100.00;99232.91;5018765;28;20045;-89
2024/01/02 08:26:13;;;;;;;10.93;4.13;;;;;;;10.94;100.00;99246.84;5013733;28;20040;-89
2024/01/02 08:28:39;;;;;;;10.48;4.13;;;;;;;10.93;100.00;99258.31;5012209;28;20034;-90
2024/01/02 08:31:05;;;;;;;10.05;3.85;;;;;;;10.92;100.00;99265.38;5012955;28;20065;-89
2024/01/02 08:33:30;;;;;;;7.22;3.83;;;;;;;10.94;100.00;99266.19;5014250;28;20133;-91
2024/01/02 08:35:56;;;;;;;9.32;4.03;;;;;;;10.96;100.00;99259.13;5004180;28;20482;-92
2024/01/02 08:38:21;;;;;;;11.43;4.20;;;;;;;10.95;100.00;99257.38;5013676;28;20038;-92
2024/01/02 08:40:47;;;;;;;11.90;4.90;;;;;;;10.98;100.00;99259.09;5012181;28;20057;-89
2024/01/02 08:43:13;;;;;;;7.80;4.05;;;;;;;10.95;100.00;99252.06;5012925;28;20060;-90
2024/01/02 08:45:39;;;;;;;12.27;4.57;;;;;;;10.72;100.00;99211.97;5012787;28;20108;-91
2024/01/02 08:48:04;;;;;;;9.98;4.45;;;;;;;11.00;100.00;99257.28;5013126;28;20030;-90
2024/01/02 08:50:30;;;;;;;7.22;4.00;;;;;;;10.82;100.00;99218.84;4996268;28;20038;-89
2024/01/02 08:52:55;;;;;;;12.98;4.43;;;;;;;10.88;100.00;99228.44;5012869;28;20091;-90
2024/01/02 08:55:21;;;;;;;8.88;3.90;;;;;;;11.01;100.00;99246.72;5014880;28;20034;-87
2024/01/02 08:57:46;;;;;;;10.07;4.20;;;;;;;10.98;100.00;99227.38;5014093;28;20104;-95
2024/01/02 09:00:14;;;;;;;9.88;4.30;;;;;;;10.99;100.00;99227.34;4992880;28;20065;-90
2024/01/02 09:02:41;;;;;;;6.53;4.15;;;;;;;11.07;100.00;99221.06;5013114;28;20034;-95
2024/01/02 09:05:07;;;;;;;8.02;4.20;;;;;;;11.06;100.00;99221.97;5013882;28;20057;-91
2024/01/02 09:07:34;;;;;;;10.70;4.32;;;;;;;11.12;100.00;99233.28;5013727;28;20196;-91
2024/01/02 09:09:59;;;;;;;6.78;3.60;;;;;;;11.05;100.00;99210.53;5013421;28;20479;-91
2024/01/02 09:12:24;;;;;;;7.38;3.70;;;;;;;11.14;100.00;99226.22;5013822;28;20041;-94
2024/01/02 09:14:50;;;;;;;6.75;3.50;;;;;;;11.13;100.00;99198.03;4996315;28;20069;-93
2024/01/02 09:17:15;;;;;;;6.10;3.30;;;;;;;11.12;100.00;99206.88;5014793;28;20041;-96
2024/01/02 09:19:40;;;;;;;4.93;3.10;;;;;;;11.15;100.00;99190.09;5016937;28;20042;-95
2024/01/02 09:22:06;;;;;;;4.20;3.00;;;;;;;11.03;100.00;99170.03;5015108;28;20058;-95
2024/01/02 09:24:42;;;;;;;4.50;3.10;;;;;;;11.09;100.00;99184.88;5017007;28;20054;-93
2024/01/02 09:27:09;;;;;;;5.55;3.33;;;;;;;10.83;100.00;99138.66;5016813;28;20030;-96
2024/01/02 09:29:38;;;;;;;4.13;3.05;;;;;;;10.82;100.00;99128.13;5012777;28;20026;-95
2024/01/02 09:32:14;;;;;;;;;;;;;;;;;;;;;
2024/01/02 09:34:45;;;;;;;3.83;2.83;;;;;;;10.98;100.00;99159.53;5017512;28;20034;-94
2024/01/02 09:37:10;;;;;;;4.57;2.80;;;;;;;10.85;100.00;99133.38;5013931;28;20030;-94
2024/01/02 09:39:45;;;;;;;3.50;2.80;;;;;;;10.92;100.00;99151.72;5011492;28;20466;-96
2024/01/02 09:42:29;;;;;;;3.90;2.70;;;;;;;11.17;100.00;99201.50;5013601;28;20104;-93
2024/01/02 09:45:16;;;;;;;3.67;2.63;;;;;;;11.15;100.00;99193.59;5018138;28;20028;-96
2024/01/02 09:48:03;;;;;;;3.20;2.60;;;;;;;11.16;100.00;99199.75;5016868;28;20026;-94
2024/01/02 09:51:00;;;;;;;3.63;2.42;;;;;;;11.17;100.00;99206.78;5014798;28;20037;-95
2024/01/02 09:53:55;;;;;;;2.60;2.30;;;;;;;11.16;100.00;99202.41;5003137;28;20042;-95
2024/01/02 09:56:51;;;;;;;2.80;2.22;;;;;;;11.12;100.00;99201.56;5009209;28;20129;-93
2024/01/02 09:59:42;;;;;;;2.67;2.10;;;;;;;11.18;100.00;99192.69;5018106;28;20103;-91
2024/01/02 10:02:32;;;;;;;4.63;2.20;;;;;;;11.10;100.00;99176.97;5018258;28;20034;-90
2024/01/02 10:05:18;;;;;;;2.30;2.10;;;;;;;11.19;100.00;99191.78;5023096;28;20113;-93
2024/01/02 10:08:05;;;;;;;4.20;2.20;;;;;;;11.20;100.00;99197.03;5017516;28;20168;-90
2024/01/02 10:11:12;;;;;;;6.35;1.90;;;;;;;11.17;100.00;99199.72;5016414;28;20111;-94
2024/01/02 10:13:46;;;;;;;4.15;1.80;;;;;;;11.23;100.00;99196.97;5018564;28;20414;-92
2024/01/02 10:16:27;;;;;;;1.83;1.73;;;;;;;11.00;100.00;99151.56;5020216;28;20093;-94
2024/01/02 10:19:06;;;;;;;2.30;1.80;;;;;;;11.28;100.00;99191.59;5020829;28;20037;-92
2024/01/02 10:21:45;;;;;;;2.03;1.80;;;;;;;11.19;100.00;99168.84;5024680;28;20025;-94
2024/01/02 10:24:26;;;;;;;1.92;1.70;;;;;;;11.31;100.00;99191.56;5020629;28;20025;-95
2024/01/02 10:27:12;;;;;;;1.55;1.45;;;;;;;11.32;100.00;99189.78;5022787;28;20041;-92
2024/01/02 10:30:00;;;;;;;2.40;1.77;;;;;;;11.29;100.00;99173.06;5008241;28;20025;-96
2024/01/02 10:32:44;;;;;;;3.47;1.90;;;;;;;11.25;100.00;99158.16;5021238;28;20026;-90
2024/01/02 10:35:15;;;;;;;2.15;1.85;;;;;;;11.25;100.00;99154.63;5018619;28;20026;-93
2024/01/02 10:37:55;;;;;;;3.90;1.92;;;;;;;11.35;100.00;99171.19;5015874;28;20113;-90
2024/01/02 10:40:23;;;;;;;2.13;1.67;;;;;;;11.39;100.00;99164.94;5014068;28;20056;-88
2024/01/02 10:43:05;;;;;;;2.25;2.00;;;;;;;11.15;100.00;99130.16;5015343;28;20038;-87
2024/01/02 10:45:36;;;;;;;2.03;1.70;;;;;;;11.36;100.00;99143.88;5014861;28;20036;-91
2024/01/02 10:48:26;;;;;;;6.83;3.43;;;;;;;11.26;100.00;99130.81;5015951;28;20030;-91
2024/01/02 10:51:05;;;;;;;5.28;2.58;;;;;;;11.43;100.00;99153.41;5023778;28;20030;-90
2024/01/02 10:53:41;;;;;;;2.25;1.50;;;;;;;11.42;100.00;99146.38;5021114;28;20095;-96
2024/01/02 10:56:13;;;;;;;1.60;1.50;;;;;;;11.39;100.00;99146.44;5030280;28;20082;-95
2024/01/02 10:59:06;;;;;;;1.60;1.50;;;;;;;11.32;100.00;99131.59;5018569;28;20109;-94
2024/01/02 11:01:37;;;;;;;1.40;1.30;;;;;;;11.34;100.00;99143.00;4982424;28;20057;-95
2024/01/02 11:04:21;;;;;;;1.73;1.50;;;;;;;11.09;100.00;99095.91;5024080;28;20034;-95
2024/01/02 11:07:04;;;;;;;1.30;1.20;;;;;;;11.22;100.00;99122.97;5024902;28;20486;-95
2024/01/02 11:09:39;;;;;;;1.25;1.15;;;;;;;11.27;100.00;99135.22;5022864;28;20036;-91
2024/01/02 11:12:09;;;;;;;1.20;1.10;;;;;;;11.24;100.00;99135.25;5018221;28;20079;-92
2024/01/02 11:14:42;;;;;;;1.30;1.20;;;;;;;11.21;100.00;99122.09;5021724;28;20111;-93
2024/01/02 11:17:13;;;;;;;0.93;0.93;;;;;;;11.03;100.00;99085.44;5022960;28;20034;-95
2024/01/02 11:20:19;;;;;;;1.08;1.00;;;;;;;11.16;100.00;99117.81;5025089;28;20526;-95
2024/01/02 11:22:59;;;;;;;5.47;1.33;;;;;;;10.85;100.00;99054.97;5030179;28;20050;-92
2024/01/02 11:25:34;;;;;;;0.90;0.90;;;;;;;10.81;100.00;99032.16;5029745;28;20030;-93
2024/01/02 11:28:11;;;;;;;1.10;1.05;;;;;;;10.88;100.00;99054.91;5030518;28;20029;-94
2024/01/02 11:30:52;;;;;;;1.25;1.10;;;;;;;10.88;100.00;99051.41;5016956;28;20049;-96
2024/01/02 11:33:27;;;;;;;1.83;1.20;;;;;;;10.78;100.00;99061.25;5062498;23;20069;-94